createdAt,value
2019-03-19T00:00:51.802Z,1011.71
2019-03-19T00:01:51.743Z,1011.71
2019-03-19T00:02:51.735Z,1011.75
2019-03-19T00:03:51.629Z,1011.75
2019-03-19T00:04:51.581Z,1011.75
2019-03-19T00:05:51.510Z,1011.78
2019-03-19T00:06:51.450Z,1011.76
2019-03-19T00:07:51.394Z,1011.76
2019-03-19T00:08:51.360Z,1011.71
2019-03-19T00:09:51.281Z,1011.65
2019-03-19T00:10:51.224Z,1011.62
2019-03-19T00:11:51.161Z,1011.58
2019-03-19T00:12:51.105Z,1011.55
2019-03-19T00:13:51.074Z,1011.56
2019-03-19T00:14:50.994Z,1011.51
2019-03-19T00:15:50.932Z,1011.59
2019-03-19T00:16:50.872Z,1011.60
2019-03-19T00:17:50.816Z,1011.69
2019-03-19T00:18:50.777Z,1011.68
2019-03-19T00:19:50.693Z,1011.71
2019-03-19T00:20:50.638Z,1011.74
2019-03-19T00:21:50.585Z,1011.76
2019-03-19T00:22:50.524Z,1011.79
2019-03-19T00:23:50.488Z,1011.83
2019-03-19T00:24:50.410Z,1011.79
2019-03-19T00:25:50.407Z,1011.85
2019-03-19T00:26:50.294Z,1011.83
2019-03-19T00:27:50.233Z,1011.81
2019-03-19T00:28:50.205Z,1011.79
2019-03-19T00:29:50.115Z,1011.77
2019-03-19T00:30:50.059Z,1011.78
2019-03-19T00:31:50.001Z,1011.82
2019-03-19T00:32:49.944Z,1011.81
2019-03-19T00:33:49.910Z,1011.81
2019-03-19T00:34:49.827Z,1011.80
2019-03-19T00:35:49.768Z,1011.86
2019-03-19T00:36:49.712Z,1011.91
2019-03-19T00:37:49.650Z,1011.90
2019-03-19T00:38:49.620Z,1011.90
2019-03-19T00:39:49.534Z,1011.90
2019-03-19T00:40:49.478Z,1011.91
2019-03-19T00:41:49.419Z,1011.92
2019-03-19T00:42:49.363Z,1011.96
2019-03-19T00:43:49.324Z,1011.99
2019-03-19T00:44:49.245Z,1012.05
2019-03-19T00:45:49.190Z,1012.04
2019-03-19T00:46:49.131Z,1012.07
2019-03-19T00:47:49.070Z,1012.06
2019-03-19T00:48:49.035Z,1012.04
2019-03-19T00:49:48.956Z,1012.04
2019-03-19T00:50:48.897Z,1012.04
2019-03-19T00:51:48.841Z,1012.07
2019-03-19T00:52:48.781Z,1012.12
2019-03-19T00:53:48.761Z,1012.13
2019-03-19T00:54:48.664Z,1012.15
2019-03-19T00:55:48.611Z,1012.12
2019-03-19T00:56:48.548Z,1012.12
2019-03-19T00:57:48.489Z,1012.15
2019-03-19T00:58:48.453Z,1012.20
2019-03-19T00:59:48.385Z,1012.21
2019-03-19T01:00:48.314Z,1012.21
2019-03-19T01:01:48.259Z,1012.22
2019-03-19T01:02:48.200Z,1012.27
2019-03-19T01:03:48.164Z,1012.23
2019-03-19T01:04:48.083Z,1012.28
2019-03-19T01:05:48.027Z,1012.29
2019-03-19T01:06:47.967Z,1012.29
2019-03-19T01:07:47.907Z,1012.33
2019-03-19T01:08:47.879Z,1012.29
2019-03-19T01:09:47.792Z,1012.31
2019-03-19T01:10:47.736Z,1012.31
2019-03-19T01:11:47.673Z,1012.37
2019-03-19T01:12:47.626Z,1012.31
2019-03-19T01:13:47.583Z,1012.29
2019-03-19T01:14:47.510Z,1012.29
2019-03-19T01:15:47.444Z,1012.27
2019-03-19T01:16:47.384Z,1012.23
2019-03-19T01:17:47.328Z,1012.24
2019-03-19T01:18:47.293Z,1012.22
2019-03-19T01:19:47.210Z,1012.23
2019-03-19T01:20:47.157Z,1012.24
2019-03-19T01:21:47.101Z,1012.21
2019-03-19T01:22:47.036Z,1012.23
2019-03-19T01:23:47.000Z,1012.23
2019-03-19T01:24:46.921Z,1012.16
2019-03-19T01:25:55.360Z,1012.15
2019-03-19T01:26:46.802Z,1012.16
2019-03-19T01:27:46.744Z,1012.11
2019-03-19T01:28:46.711Z,1012.10
2019-03-19T01:29:46.628Z,1012.16
2019-03-19T01:30:46.570Z,1012.19
2019-03-19T01:31:46.513Z,1012.20
2019-03-19T01:32:46.450Z,1012.24
2019-03-19T01:33:46.419Z,1012.24
2019-03-19T01:34:46.334Z,1012.20
2019-03-19T01:35:46.282Z,1012.21
2019-03-19T01:36:46.220Z,1012.22
2019-03-19T01:37:46.165Z,1012.19
2019-03-19T01:38:46.132Z,1012.15
2019-03-19T01:39:46.046Z,1012.18
2019-03-19T01:40:45.989Z,1012.16
2019-03-19T01:41:45.931Z,1012.21
2019-03-19T01:42:45.876Z,1012.19
2019-03-19T01:43:45.816Z,1012.20
2019-03-19T01:44:45.781Z,1012.20
2019-03-19T01:45:45.694Z,1012.20
2019-03-19T01:46:45.639Z,1012.21
2019-03-19T01:47:45.577Z,1012.20
2019-03-19T01:48:45.523Z,1012.20
2019-03-19T01:49:45.490Z,1012.21
2019-03-19T01:50:45.404Z,1012.24
2019-03-19T01:51:45.349Z,1012.24
2019-03-19T01:52:45.292Z,1012.24
2019-03-19T01:53:45.230Z,1012.26
2019-03-19T01:54:45.194Z,1012.25
2019-03-19T01:55:45.117Z,1012.24
2019-03-19T01:56:45.057Z,1012.26
2019-03-19T01:57:45.001Z,1012.31
2019-03-19T01:58:44.938Z,1012.28
2019-03-19T01:59:44.908Z,1012.32
2019-03-19T02:00:44.823Z,1012.30
2019-03-19T02:01:44.770Z,1012.40
2019-03-19T02:02:44.710Z,1012.33
2019-03-19T02:03:44.648Z,1012.32
2019-03-19T02:04:44.613Z,1012.37
2019-03-19T02:05:44.533Z,1012.33
2019-03-19T02:06:44.473Z,1012.33
2019-03-19T02:07:44.422Z,1012.37
2019-03-19T02:08:44.359Z,1012.39
2019-03-19T02:09:44.320Z,1012.40
2019-03-19T02:10:44.240Z,1012.45
2019-03-19T02:11:44.183Z,1012.50
2019-03-19T02:12:44.129Z,1012.47
2019-03-19T02:13:44.079Z,1012.52
2019-03-19T02:14:44.032Z,1012.51
2019-03-19T02:15:43.951Z,1012.53
2019-03-19T02:16:43.892Z,1012.51
2019-03-19T02:17:43.837Z,1012.48
2019-03-19T02:18:43.770Z,1012.50
2019-03-19T02:19:43.746Z,1012.50
2019-03-19T02:20:43.663Z,1012.48
2019-03-19T02:21:43.600Z,1012.48
2019-03-19T02:22:43.534Z,1012.50
2019-03-19T02:23:43.490Z,1012.48
2019-03-19T02:24:43.450Z,1012.52
2019-03-19T02:25:43.366Z,1012.52
2019-03-19T02:26:43.306Z,1012.53
2019-03-19T02:27:43.251Z,1012.56
2019-03-19T02:28:43.192Z,1012.61
2019-03-19T02:29:43.161Z,1012.64
2019-03-19T02:30:43.079Z,1012.65
2019-03-19T02:31:43.019Z,1012.67
2019-03-19T02:32:42.972Z,1012.72
2019-03-19T02:33:42.899Z,1012.70
2019-03-19T02:34:42.864Z,1012.67
2019-03-19T02:35:42.794Z,1012.66
2019-03-19T02:36:42.737Z,1012.66
2019-03-19T02:37:42.665Z,1012.67
2019-03-19T02:38:42.615Z,1012.65
2019-03-19T02:39:42.570Z,1012.67
2019-03-19T02:40:42.493Z,1012.68
2019-03-19T02:41:42.437Z,1012.73
2019-03-19T02:42:42.380Z,1012.71
2019-03-19T02:43:42.318Z,1012.69
2019-03-19T02:44:42.285Z,1012.67
2019-03-19T02:45:42.207Z,1012.67
2019-03-19T02:46:42.138Z,1012.70
2019-03-19T02:47:42.089Z,1012.73
2019-03-19T02:48:42.023Z,1012.74
2019-03-19T02:49:41.993Z,1012.75
2019-03-19T02:50:41.911Z,1012.81
2019-03-19T02:51:41.849Z,1012.80
2019-03-19T02:52:41.791Z,1012.83
2019-03-19T02:53:41.739Z,1012.85
2019-03-19T02:54:41.703Z,1012.83
2019-03-19T02:55:41.616Z,1012.86
2019-03-19T02:56:41.557Z,1012.83
2019-03-19T02:57:41.514Z,1012.88
2019-03-19T02:58:41.440Z,1012.88
2019-03-19T02:59:41.406Z,1012.91
2019-03-19T03:00:41.328Z,1012.91
2019-03-19T03:01:41.270Z,1012.86
2019-03-19T03:02:41.300Z,1012.88
2019-03-19T03:03:41.148Z,1012.86
2019-03-19T03:04:41.114Z,1012.88
2019-03-19T03:05:41.035Z,1012.90
2019-03-19T03:06:40.974Z,1012.89
2019-03-19T03:07:40.916Z,1012.86
2019-03-19T03:08:40.857Z,1012.87
2019-03-19T03:09:40.821Z,1012.90
2019-03-19T03:10:40.738Z,1012.84
2019-03-19T03:11:40.682Z,1012.88
2019-03-19T03:12:40.619Z,1012.89
2019-03-19T03:13:40.562Z,1012.92
2019-03-19T03:14:40.533Z,1012.98
2019-03-19T03:15:40.448Z,1012.95
2019-03-19T03:16:40.395Z,1012.96
2019-03-19T03:17:40.335Z,1012.94
2019-03-19T03:20:11.956Z,1013.01
2019-03-19T03:21:11.875Z,1013.06
2019-03-19T03:22:11.835Z,1013.07
2019-03-19T03:23:11.768Z,1013.09
2019-03-19T03:24:11.699Z,1013.15
2019-03-19T03:25:11.672Z,1013.15
2019-03-19T03:26:11.596Z,1013.16
2019-03-19T03:27:11.581Z,1013.17
2019-03-19T03:28:11.471Z,1013.16
2019-03-19T03:29:11.456Z,1013.16
2019-03-19T03:30:11.375Z,1013.16
2019-03-19T03:31:11.294Z,1013.21
2019-03-19T03:32:11.266Z,1013.18
2019-03-19T03:33:11.171Z,1013.18
2019-03-19T03:34:11.113Z,1013.16
2019-03-19T03:35:11.109Z,1013.14
2019-03-19T03:36:11.001Z,1013.11
2019-03-19T03:37:10.947Z,1013.12
2019-03-19T03:38:10.909Z,1013.14
2019-03-19T03:39:10.841Z,1013.13
2019-03-19T03:40:10.788Z,1013.11
2019-03-19T03:41:10.723Z,1013.13
2019-03-19T03:42:10.653Z,1013.12
2019-03-19T03:43:10.600Z,1013.16
2019-03-19T03:44:10.545Z,1013.14
2019-03-19T03:45:10.498Z,1013.16
2019-03-19T03:46:10.420Z,1013.16
2019-03-19T03:47:10.355Z,1013.16
2019-03-19T03:48:10.310Z,1013.22
2019-03-19T03:49:10.238Z,1013.25
2019-03-19T03:50:10.205Z,1013.21
2019-03-19T03:51:10.125Z,1013.25
2019-03-19T03:52:10.059Z,1013.23
2019-03-19T03:53:10.001Z,1013.24
2019-03-19T03:54:09.975Z,1013.22
2019-03-19T03:55:09.905Z,1013.24
2019-03-19T03:56:09.825Z,1013.27
2019-03-19T03:57:09.793Z,1013.25
2019-03-19T03:58:09.718Z,1013.26
2019-03-19T03:59:09.645Z,1013.30
2019-03-19T04:00:09.621Z,1013.30
2019-03-19T04:01:09.562Z,1013.29
2019-03-19T04:02:09.487Z,1013.28
2019-03-19T04:03:09.414Z,1013.32
2019-03-19T04:04:09.370Z,1013.32
2019-03-19T04:05:09.483Z,1013.35
2019-03-19T04:06:09.260Z,1013.33
2019-03-19T04:07:09.182Z,1013.35
2019-03-19T04:08:09.129Z,1013.41
2019-03-19T04:09:09.532Z,1013.40
2019-03-19T04:10:09.009Z,1013.45
2019-03-19T04:11:08.978Z,1013.45
2019-03-19T04:12:08.890Z,1013.46
2019-03-19T04:13:08.857Z,1013.48
2019-03-19T04:14:08.765Z,1013.47
2019-03-19T04:15:08.720Z,1013.48
2019-03-19T04:16:08.709Z,1013.44
2019-03-19T04:17:08.592Z,1013.45
2019-03-19T04:18:08.541Z,1013.48
2019-03-19T04:19:08.483Z,1013.48
2019-03-19T04:20:08.431Z,1013.47
2019-03-19T04:21:08.396Z,1013.49
2019-03-19T04:22:08.304Z,1013.52
2019-03-19T04:23:08.242Z,1013.57
2019-03-19T04:24:08.198Z,1013.55
2019-03-19T04:25:08.126Z,1013.53
2019-03-19T04:26:08.101Z,1013.55
2019-03-19T04:27:16.070Z,1013.58
2019-03-19T04:28:07.953Z,1013.57
2019-03-19T04:29:07.898Z,1013.63
2019-03-19T04:30:07.854Z,1013.65
2019-03-19T04:31:07.812Z,1013.66
2019-03-19T04:32:07.725Z,1013.70
2019-03-19T04:33:07.668Z,1013.73
2019-03-19T04:34:07.614Z,1013.74
2019-03-19T04:35:07.546Z,1013.73
2019-03-19T04:36:07.509Z,1013.72
2019-03-19T04:37:07.424Z,1013.76
2019-03-19T04:38:07.371Z,1013.75
2019-03-19T04:39:07.311Z,1013.70
2019-03-19T04:40:07.251Z,1013.69
2019-03-19T04:41:07.221Z,1013.66
2019-03-19T04:42:07.178Z,1013.67
2019-03-19T04:43:07.073Z,1013.71
2019-03-19T04:44:07.023Z,1013.74
2019-03-19T04:45:06.954Z,1013.77
2019-03-19T04:46:06.960Z,1013.75
2019-03-19T04:47:06.839Z,1013.77
2019-03-19T04:48:06.790Z,1013.83
2019-03-19T04:49:06.735Z,1013.83
2019-03-19T04:50:06.698Z,1013.79
2019-03-19T04:51:06.632Z,1013.85
2019-03-19T04:52:06.577Z,1013.81
2019-03-19T04:53:06.486Z,1013.76
2019-03-19T04:54:06.429Z,1013.84
2019-03-19T04:55:06.374Z,1013.82
2019-03-19T04:56:06.371Z,1013.81
2019-03-19T04:57:06.254Z,1013.81
2019-03-19T04:58:06.190Z,1013.77
2019-03-19T04:59:06.145Z,1013.77
2019-03-19T05:00:06.083Z,1013.79
2019-03-19T05:01:06.053Z,1013.76
2019-03-19T05:02:05.957Z,1013.76
2019-03-19T05:03:05.916Z,1013.76
2019-03-19T05:04:05.835Z,1013.76
2019-03-19T05:05:05.783Z,1013.75
2019-03-19T05:06:05.775Z,1013.77
2019-03-19T05:07:05.672Z,1013.80
2019-03-19T05:08:05.610Z,1013.80
2019-03-19T05:09:05.557Z,1013.77
2019-03-19T05:10:05.495Z,1013.82
2019-03-19T05:11:05.482Z,1013.81
2019-03-19T05:12:05.367Z,1013.82
2019-03-19T05:13:05.340Z,1013.89
2019-03-19T05:14:05.259Z,1013.88
2019-03-19T05:15:05.198Z,1013.90
2019-03-19T05:16:05.185Z,1013.94
2019-03-19T05:17:05.083Z,1013.91
2019-03-19T05:18:05.028Z,1013.96
2019-03-19T05:19:04.973Z,1013.96
2019-03-19T05:20:04.907Z,1013.99
2019-03-19T05:21:04.877Z,1013.98
2019-03-19T05:22:04.799Z,1013.98
2019-03-19T05:23:04.732Z,1013.97
2019-03-19T05:24:04.675Z,1013.96
2019-03-19T05:25:04.643Z,1013.95
2019-03-19T05:26:04.576Z,1013.99
2019-03-19T05:27:04.498Z,1013.97
2019-03-19T05:28:04.435Z,1014.01
2019-03-19T05:29:04.373Z,1013.99
2019-03-19T05:30:04.318Z,1014.01
2019-03-19T05:31:04.282Z,1014.01
2019-03-19T05:32:04.200Z,1013.99
2019-03-19T05:33:04.168Z,1013.98
2019-03-19T05:34:04.103Z,1013.97
2019-03-19T05:35:04.027Z,1013.98
2019-03-19T05:36:03.988Z,1013.99
2019-03-19T05:37:03.934Z,1013.99
2019-03-19T05:38:03.843Z,1014.01
2019-03-19T05:39:03.790Z,1014.01
2019-03-19T05:40:03.766Z,1014.01
2019-03-19T05:41:03.737Z,1014.08
2019-03-19T05:42:03.762Z,1014.04
2019-03-19T05:43:03.555Z,1014.03
2019-03-19T05:44:03.548Z,1014.07
2019-03-19T05:45:03.447Z,1014.04
2019-03-19T05:46:03.388Z,1014.09
2019-03-19T05:47:03.359Z,1014.08
2019-03-19T05:48:03.264Z,1014.16
2019-03-19T05:49:03.203Z,1014.14
2019-03-19T05:50:03.145Z,1014.13
2019-03-19T05:51:03.083Z,1014.17
2019-03-19T05:52:03.058Z,1014.19
2019-03-19T05:53:02.973Z,1014.23
2019-03-19T05:54:02.926Z,1014.26
2019-03-19T05:55:02.845Z,1014.23
2019-03-19T05:56:02.798Z,1014.27
2019-03-19T05:57:02.773Z,1014.21
2019-03-19T05:58:02.676Z,1014.21
2019-03-19T05:59:02.625Z,1014.21
2019-03-19T06:00:02.562Z,1014.18
2019-03-19T06:01:02.506Z,1014.21
2019-03-19T06:02:02.468Z,1014.22
2019-03-19T06:03:02.395Z,1014.25
2019-03-19T06:04:02.328Z,1014.27
2019-03-19T06:05:02.260Z,1014.27
2019-03-19T06:06:02.231Z,1014.32
2019-03-19T06:07:02.177Z,1014.32
2019-03-19T06:08:02.083Z,1014.38
2019-03-19T06:09:02.031Z,1014.38
2019-03-19T06:10:01.973Z,1014.43
2019-03-19T06:11:01.920Z,1014.44
2019-03-19T06:12:01.919Z,1014.42
2019-03-19T06:13:01.795Z,1014.47
2019-03-19T06:14:01.740Z,1014.50
2019-03-19T06:15:01.684Z,1014.54
2019-03-19T06:16:01.618Z,1014.61
2019-03-19T06:17:01.600Z,1014.65
2019-03-19T06:18:01.508Z,1014.62
2019-03-19T06:19:01.451Z,1014.67
2019-03-19T06:20:01.399Z,1014.71
2019-03-19T06:21:01.324Z,1014.70
2019-03-19T06:22:01.300Z,1014.74
2019-03-19T06:23:01.218Z,1014.76
2019-03-19T06:24:01.154Z,1014.73
2019-03-19T06:25:01.092Z,1014.79
2019-03-19T06:26:01.030Z,1014.79
2019-03-19T06:27:01.002Z,1014.78
2019-03-19T06:28:01.089Z,1014.84
2019-03-19T06:29:00.869Z,1014.85
2019-03-19T06:30:00.805Z,1014.82
2019-03-19T06:31:00.761Z,1014.84
2019-03-19T06:32:00.718Z,1014.80
2019-03-19T06:33:00.628Z,1014.80
2019-03-19T06:34:00.577Z,1014.73
2019-03-19T06:35:00.509Z,1014.74
2019-03-19T06:36:00.453Z,1014.73
2019-03-19T06:37:00.412Z,1014.72
2019-03-19T06:38:00.331Z,1014.75
2019-03-19T06:39:00.288Z,1014.75
2019-03-19T06:40:00.329Z,1014.78
2019-03-19T06:41:00.166Z,1014.83
2019-03-19T06:42:00.134Z,1014.84
2019-03-19T06:43:00.038Z,1014.85
2019-03-19T06:43:59.985Z,1014.90
2019-03-19T06:44:59.933Z,1014.97
2019-03-19T06:45:59.868Z,1015.02
2019-03-19T06:46:59.840Z,1015.05
2019-03-19T06:47:59.754Z,1015.08
2019-03-19T06:48:59.697Z,1015.08
2019-03-19T06:49:59.641Z,1015.10
2019-03-19T06:50:59.573Z,1015.08
2019-03-19T06:51:59.545Z,1015.13
2019-03-19T06:52:59.458Z,1015.11
2019-03-19T06:53:59.408Z,1015.11
2019-03-19T06:54:59.351Z,1015.13
2019-03-19T06:55:59.291Z,1015.13
2019-03-19T06:56:59.251Z,1015.17
2019-03-19T06:57:59.173Z,1015.23
2019-03-19T06:58:59.115Z,1015.23
2019-03-19T06:59:59.062Z,1015.28
2019-03-19T07:00:59.001Z,1015.27
2019-03-19T07:01:58.975Z,1015.30
2019-03-19T07:02:58.893Z,1015.29
2019-03-19T07:03:58.827Z,1015.32
2019-03-19T07:04:58.770Z,1015.34
2019-03-19T07:05:58.718Z,1015.35
2019-03-19T07:06:58.695Z,1015.37
2019-03-19T07:07:58.611Z,1015.34
2019-03-19T07:08:58.538Z,1015.26
2019-03-19T07:09:58.485Z,1015.29
2019-03-19T07:10:58.535Z,1015.24
2019-03-19T07:11:58.394Z,1015.27
2019-03-19T07:12:58.307Z,1015.30
2019-03-19T07:13:58.270Z,1015.32
2019-03-19T07:14:58.185Z,1015.35
2019-03-19T07:15:58.159Z,1015.33
2019-03-19T07:16:58.097Z,1015.32
2019-03-19T07:17:58.042Z,1015.34
2019-03-19T07:18:57.966Z,1015.39
2019-03-19T07:19:57.907Z,1015.43
2019-03-19T07:20:57.877Z,1015.42
2019-03-19T07:21:57.844Z,1015.46
2019-03-19T07:22:57.745Z,1015.48
2019-03-19T07:23:57.680Z,1015.55
2019-03-19T07:24:57.627Z,1015.48
2019-03-19T07:25:57.605Z,1015.53
2019-03-19T07:26:57.507Z,1015.55
2019-03-19T07:27:57.487Z,1015.59
2019-03-19T07:28:57.399Z,1015.56
2019-03-19T07:29:57.327Z,1015.61
2019-03-19T07:30:57.263Z,1015.65
2019-03-19T07:31:57.230Z,1015.68
2019-03-19T07:32:57.202Z,1015.71
2019-03-19T07:33:57.120Z,1015.73
2019-03-19T07:34:57.067Z,1015.69
2019-03-19T07:35:57.003Z,1015.66
2019-03-19T07:36:56.944Z,1015.69
2019-03-19T07:37:56.910Z,1015.68
2019-03-19T07:38:56.820Z,1015.68
2019-03-19T07:39:56.765Z,1015.69
2019-03-19T07:40:56.716Z,1015.70
2019-03-19T07:41:56.643Z,1015.72
2019-03-19T07:42:56.640Z,1015.73
2019-03-19T07:43:56.538Z,1015.76
2019-03-19T07:44:56.470Z,1015.75
2019-03-19T07:45:56.425Z,1015.73
2019-03-19T07:46:56.359Z,1015.78
2019-03-19T07:47:56.362Z,1015.81
2019-03-19T07:48:56.252Z,1015.82
2019-03-19T07:49:56.188Z,1015.87
2019-03-19T07:50:56.136Z,1015.85
2019-03-19T07:51:56.090Z,1015.88
2019-03-19T07:52:56.046Z,1015.91
2019-03-19T07:53:55.970Z,1015.92
2019-03-19T07:54:55.907Z,1015.92
2019-03-19T07:55:55.853Z,1015.92
2019-03-19T07:56:55.799Z,1015.92
2019-03-19T07:57:55.766Z,1015.96
2019-03-19T07:58:55.682Z,1015.96
2019-03-19T07:59:55.633Z,1015.95
2019-03-19T08:00:55.575Z,1016.01
2019-03-19T08:01:55.533Z,1016.01
2019-03-19T08:02:55.485Z,1016.02
2019-03-19T08:03:55.400Z,1016.01
2019-03-19T08:04:55.409Z,1016.02
2019-03-19T08:05:55.306Z,1016.00
2019-03-19T08:06:55.232Z,1016.01
2019-03-19T08:07:55.197Z,1016.04
2019-03-19T08:08:55.147Z,1015.98
2019-03-19T08:09:55.065Z,1015.99
2019-03-19T08:10:55.008Z,1016.00
2019-03-19T08:11:54.961Z,1015.99
2019-03-19T08:12:54.942Z,1016.00
2019-03-19T08:13:54.844Z,1016.05
2019-03-19T08:14:54.786Z,1016.06
2019-03-19T08:15:54.778Z,1016.06
2019-03-19T08:16:54.702Z,1016.07
2019-03-19T08:17:54.675Z,1016.07
2019-03-19T08:18:54.563Z,1016.07
2019-03-19T08:19:54.523Z,1016.10
2019-03-19T08:20:54.472Z,1016.09
2019-03-19T08:21:54.393Z,1016.09
2019-03-19T08:22:54.359Z,1016.10
2019-03-19T08:23:54.273Z,1016.12
2019-03-19T08:24:54.376Z,1016.09
2019-03-19T08:25:54.165Z,1016.17
2019-03-19T08:26:54.105Z,1016.14
2019-03-19T08:27:54.078Z,1016.19
2019-03-19T08:28:55.482Z,1016.16
2019-03-19T08:29:53.938Z,1016.15
2019-03-19T08:30:53.877Z,1016.16
2019-03-19T08:31:53.854Z,1016.22
2019-03-19T08:32:53.814Z,1016.21
2019-03-19T08:33:53.714Z,1016.20
2019-03-19T08:34:53.650Z,1016.19
2019-03-19T08:35:53.593Z,1016.18
2019-03-19T08:36:53.537Z,1016.19
2019-03-19T08:37:53.508Z,1016.18
2019-03-19T08:38:53.445Z,1016.19
2019-03-19T08:39:53.367Z,1016.17
2019-03-19T08:40:53.328Z,1016.22
2019-03-19T08:41:53.266Z,1016.24
2019-03-19T08:42:53.227Z,1016.24
2019-03-19T08:43:53.204Z,1016.28
2019-03-19T08:44:53.104Z,1016.24
2019-03-19T08:45:53.031Z,1016.24
2019-03-19T08:46:53.006Z,1016.33
2019-03-19T08:47:53.080Z,1016.31
2019-03-19T08:48:52.864Z,1016.34
2019-03-19T08:49:52.845Z,1016.40
2019-03-19T08:50:52.768Z,1016.39
2019-03-19T08:51:52.698Z,1016.40
2019-03-19T08:52:54.994Z,1016.45
2019-03-19T08:53:52.584Z,1016.41
2019-03-19T08:54:52.527Z,1016.43
2019-03-19T08:55:52.478Z,1016.44
2019-03-19T08:56:52.419Z,1016.43
2019-03-19T08:57:52.397Z,1016.41
2019-03-19T08:58:52.311Z,1016.36
2019-03-19T08:59:52.263Z,1016.35
2019-03-19T09:00:52.210Z,1016.39
2019-03-19T09:01:52.154Z,1016.43
2019-03-19T09:02:52.153Z,1016.40
2019-03-19T09:03:52.029Z,1016.35
2019-03-19T09:04:51.985Z,1016.35
2019-03-19T09:05:51.910Z,1016.39
2019-03-19T09:06:51.877Z,1016.39
2019-03-19T09:07:51.805Z,1016.43
2019-03-19T09:08:51.777Z,1016.43
2019-03-19T09:09:51.703Z,1016.49
2019-03-19T09:10:51.639Z,1016.53
2019-03-19T09:11:51.588Z,1016.51
2019-03-19T09:12:51.526Z,1016.51
2019-03-19T09:13:51.540Z,1016.54
2019-03-19T09:14:51.419Z,1016.52
2019-03-19T09:15:51.391Z,1016.49
2019-03-19T09:16:51.321Z,1016.49
2019-03-19T09:17:51.258Z,1016.46
2019-03-19T09:18:51.225Z,1016.44
2019-03-19T09:19:59.015Z,1016.47
2019-03-19T09:20:51.084Z,1016.49
2019-03-19T09:21:51.028Z,1016.50
2019-03-19T09:22:50.985Z,1016.52
2019-03-19T09:23:50.945Z,1016.56
2019-03-19T09:24:50.866Z,1016.59
2019-03-19T09:25:50.811Z,1016.59
2019-03-19T09:26:50.755Z,1016.60
2019-03-19T09:27:50.701Z,1016.58
2019-03-19T09:28:50.668Z,1016.60
2019-03-19T09:29:50.589Z,1016.59
2019-03-19T09:30:50.542Z,1016.59
2019-03-19T09:31:50.478Z,1016.57
2019-03-19T09:32:50.426Z,1016.57
2019-03-19T09:33:50.391Z,1016.57
2019-03-19T09:34:50.320Z,1016.54
2019-03-19T09:35:50.260Z,1016.55
2019-03-19T09:36:57.193Z,1016.53
2019-03-19T09:37:58.404Z,1016.50
2019-03-19T09:38:50.118Z,1016.52
2019-03-19T09:39:50.039Z,1016.51
2019-03-19T09:40:49.985Z,1016.48
2019-03-19T09:41:49.928Z,1016.46
2019-03-19T09:42:49.885Z,1016.41
2019-03-19T09:43:49.845Z,1016.43
2019-03-19T09:44:58.150Z,1016.46
2019-03-19T09:45:49.719Z,1016.43
2019-03-19T09:46:49.656Z,1016.45
2019-03-19T09:47:49.599Z,1016.49
2019-03-19T09:48:49.570Z,1016.51
2019-03-19T09:49:49.489Z,1016.54
2019-03-19T09:50:49.435Z,1016.55
2019-03-19T09:51:49.383Z,1016.53
2019-03-19T09:52:49.329Z,1016.53
2019-03-19T09:53:49.296Z,1016.50
2019-03-19T09:54:49.217Z,1016.50
2019-03-19T09:55:49.160Z,1016.50
2019-03-19T09:56:49.105Z,1016.46
2019-03-19T09:57:49.050Z,1016.50
2019-03-19T09:58:49.018Z,1016.47
2019-03-19T09:59:48.938Z,1016.42
2019-03-19T10:00:48.891Z,1016.45
2019-03-19T10:01:48.837Z,1016.49
2019-03-19T10:02:48.782Z,1016.57
2019-03-19T10:03:48.750Z,1016.58
2019-03-19T10:04:48.670Z,1016.57
2019-03-19T10:05:48.616Z,1016.56
2019-03-19T10:06:48.569Z,1016.57
2019-03-19T10:07:48.504Z,1016.61
2019-03-19T10:08:48.478Z,1016.63
2019-03-19T10:09:48.397Z,1016.60
2019-03-19T10:10:48.349Z,1016.63
2019-03-19T10:11:48.297Z,1016.60
2019-03-19T10:12:48.241Z,1016.59
2019-03-19T10:13:48.208Z,1016.55
2019-03-19T10:14:48.132Z,1016.54
2019-03-19T10:15:48.073Z,1016.53
2019-03-19T10:16:48.018Z,1016.57
2019-03-19T10:17:48.020Z,1016.63
2019-03-19T10:18:47.933Z,1016.55
2019-03-19T10:19:47.862Z,1016.58
2019-03-19T10:20:47.804Z,1016.62
2019-03-19T10:21:47.752Z,1016.63
2019-03-19T10:22:47.698Z,1016.64
2019-03-19T10:23:47.665Z,1016.67
2019-03-19T10:24:47.587Z,1016.68
2019-03-19T10:25:47.536Z,1016.66
2019-03-19T10:26:47.480Z,1016.65
2019-03-19T10:27:47.427Z,1016.65
2019-03-19T10:28:47.398Z,1016.63
2019-03-19T10:29:47.324Z,1016.64
2019-03-19T10:30:47.266Z,1016.68
2019-03-19T10:31:47.213Z,1016.60
2019-03-19T10:32:47.154Z,1016.60
2019-03-19T10:33:47.123Z,1016.65
2019-03-19T10:34:47.048Z,1016.67
2019-03-19T10:35:46.995Z,1016.70
2019-03-19T10:36:46.942Z,1016.71
2019-03-19T10:37:46.897Z,1016.69
2019-03-19T10:38:46.861Z,1016.66
2019-03-19T10:39:46.784Z,1016.70
2019-03-19T10:40:46.728Z,1016.62
2019-03-19T10:41:46.672Z,1016.67
2019-03-19T10:42:46.625Z,1016.65
2019-03-19T10:43:46.593Z,1016.65
2019-03-19T10:44:46.521Z,1016.67
2019-03-19T10:45:46.463Z,1016.63
2019-03-19T10:46:46.403Z,1016.67
2019-03-19T10:47:46.356Z,1016.65
2019-03-19T10:48:46.333Z,1016.66
2019-03-19T10:49:46.245Z,1016.65
2019-03-19T10:50:46.197Z,1016.67
2019-03-19T10:51:46.139Z,1016.64
2019-03-19T10:52:46.096Z,1016.67
2019-03-19T10:53:46.056Z,1016.65
2019-03-19T10:54:45.996Z,1016.67
2019-03-19T10:55:45.925Z,1016.64
2019-03-19T10:56:45.870Z,1016.59
2019-03-19T10:57:45.819Z,1016.61
2019-03-19T10:58:45.767Z,1016.61
2019-03-19T10:59:49.368Z,1016.67
2019-03-19T11:00:45.656Z,1016.67
2019-03-19T11:01:45.596Z,1016.72
2019-03-19T11:02:45.550Z,1016.70
2019-03-19T11:03:45.498Z,1016.75
2019-03-19T11:04:45.467Z,1016.69
2019-03-19T11:05:45.378Z,1016.70
2019-03-19T11:06:45.333Z,1016.70
2019-03-19T11:07:45.289Z,1016.69
2019-03-19T11:08:45.231Z,1016.70
2019-03-19T11:09:45.201Z,1016.68
2019-03-19T11:10:45.124Z,1016.69
2019-03-19T11:11:45.072Z,1016.69
2019-03-19T11:12:45.020Z,1016.70
2019-03-19T11:13:44.964Z,1016.70
2019-03-19T11:14:44.939Z,1016.78
2019-03-19T11:15:44.858Z,1016.75
2019-03-19T11:16:44.805Z,1016.72
2019-03-19T11:17:44.756Z,1016.75
2019-03-19T11:18:44.703Z,1016.73
2019-03-19T11:19:44.672Z,1016.77
2019-03-19T11:20:45.516Z,1016.78
2019-03-19T11:21:44.543Z,1016.76
2019-03-19T11:22:44.488Z,1016.76
2019-03-19T11:23:44.438Z,1016.74
2019-03-19T11:24:44.410Z,1016.72
2019-03-19T11:25:54.193Z,1016.74
2019-03-19T11:26:44.280Z,1016.76
2019-03-19T11:27:44.229Z,1016.72
2019-03-19T11:28:44.173Z,1016.76
2019-03-19T11:29:44.145Z,1016.74
2019-03-19T11:30:44.066Z,1016.73
2019-03-19T11:31:44.019Z,1016.74
2019-03-19T11:32:43.963Z,1016.73
2019-03-19T11:33:43.911Z,1016.76
2019-03-19T11:34:43.885Z,1016.72
2019-03-19T11:35:45.610Z,1016.73
2019-03-19T11:36:43.756Z,1016.73
2019-03-19T11:37:43.706Z,1016.70
2019-03-19T11:38:43.656Z,1016.70
2019-03-19T11:39:43.623Z,1016.72
2019-03-19T11:40:43.596Z,1016.72
2019-03-19T11:41:43.493Z,1016.70
2019-03-19T11:42:43.437Z,1016.70
2019-03-19T11:43:43.390Z,1016.74
2019-03-19T11:44:43.365Z,1016.73
2019-03-19T11:45:43.289Z,1016.78
2019-03-19T11:46:43.240Z,1016.73
2019-03-19T11:47:43.184Z,1016.78
2019-03-19T11:48:43.129Z,1016.79
2019-03-19T11:49:43.097Z,1016.75
2019-03-19T11:50:43.027Z,1016.77
2019-03-19T11:51:42.975Z,1016.79
2019-03-19T11:52:42.924Z,1016.70
2019-03-19T11:53:42.867Z,1016.68
2019-03-19T11:54:42.840Z,1016.65
2019-03-19T11:55:42.769Z,1016.71
2019-03-19T11:56:42.713Z,1016.66
2019-03-19T11:57:42.666Z,1016.69
2019-03-19T11:58:42.610Z,1016.70
2019-03-19T11:59:42.585Z,1016.69
2019-03-19T12:00:42.504Z,1016.75
2019-03-19T12:01:42.454Z,1016.74
2019-03-19T12:02:42.400Z,1016.73
2019-03-19T12:03:42.349Z,1016.72
2019-03-19T12:04:42.322Z,1016.74
2019-03-19T12:05:42.251Z,1016.67
2019-03-19T12:06:42.201Z,1016.69